createdAt,value
2019-05-20T00:00:28.338Z,6.45
2019-05-20T00:01:03.467Z,6.30
2019-05-20T00:01:38.062Z,6.28
2019-05-20T00:02:24.491Z,7.28
2019-05-20T00:02:49.940Z,6.90
2019-05-20T00:03:24.557Z,6.30
2019-05-20T00:03:59.637Z,6.30
2019-05-20T00:04:34.792Z,6.50
2019-05-20T00:05:09.506Z,6.70
2019-05-20T00:05:44.737Z,5.80
2019-05-20T00:06:19.842Z,6.55
2019-05-20T00:06:54.388Z,6.65
2019-05-20T00:07:29.516Z,6.28
2019-05-20T00:08:04.612Z,6.10
2019-05-20T00:08:39.592Z,5.85
2019-05-20T00:09:14.835Z,5.75
2019-05-20T00:09:49.991Z,6.42
2019-05-20T00:10:24.568Z,7.15
2019-05-20T00:10:59.655Z,5.90
2019-05-20T00:11:35.622Z,6.35
2019-05-20T00:12:10.212Z,5.95
2019-05-20T00:12:45.393Z,5.17
2019-05-20T00:13:20.597Z,6.90
2019-05-20T00:13:55.220Z,6.05
2019-05-20T00:14:32.297Z,6.12
2019-05-20T00:15:07.681Z,6.03
2019-05-20T00:15:42.197Z,7.20
2019-05-20T00:16:17.341Z,5.75
2019-05-20T00:16:52.496Z,6.28
2019-05-20T00:17:27.114Z,6.15
2019-05-20T00:18:02.238Z,5.70
2019-05-20T00:18:37.372Z,5.47
2019-05-20T00:19:11.985Z,5.22
2019-05-20T00:19:47.117Z,6.30
2019-05-20T00:20:22.175Z,6.17
2019-05-20T00:20:56.692Z,5.55
2019-05-20T00:21:31.772Z,7.17
2019-05-20T00:22:06.847Z,5.78
2019-05-20T00:22:41.430Z,6.78
2019-05-20T00:23:16.559Z,5.85
2019-05-20T00:23:51.626Z,5.60
2019-05-20T00:24:26.147Z,7.40
2019-05-20T00:25:01.333Z,5.55
2019-05-20T00:25:36.437Z,5.55
2019-05-20T00:26:11.032Z,5.78
2019-05-20T00:26:46.183Z,6.10
2019-05-20T00:27:21.316Z,5.60
2019-05-20T00:27:55.827Z,6.08
2019-05-20T00:28:30.921Z,6.28
2019-05-20T00:29:06.068Z,6.00
2019-05-20T00:29:40.646Z,5.95
2019-05-20T00:30:16.728Z,5.85
2019-05-20T00:30:51.919Z,6.67
2019-05-20T00:31:26.806Z,5.33
2019-05-20T00:32:01.928Z,5.67
2019-05-20T00:32:41.313Z,5.70
2019-05-20T00:33:13.214Z,5.47
2019-05-20T00:33:48.428Z,6.75
2019-05-20T00:34:34.617Z,5.83
2019-05-20T00:35:00.010Z,5.83
2019-05-20T00:35:35.723Z,6.08
2019-05-20T00:36:11.303Z,5.80
2019-05-20T00:36:45.889Z,6.25
2019-05-20T00:37:21.038Z,5.80
2019-05-20T00:37:56.127Z,6.17
2019-05-20T00:38:30.748Z,5.25
2019-05-20T00:39:20.967Z,6.05
2019-05-20T00:39:56.102Z,5.95
2019-05-20T00:40:30.789Z,5.40
2019-05-20T00:41:07.945Z,7.83
2019-05-20T00:41:43.114Z,6.00
2019-05-20T00:42:17.660Z,6.12
2019-05-20T00:42:52.790Z,6.42
2019-05-20T00:43:28.119Z,6.00
2019-05-20T00:44:02.799Z,5.50
2019-05-20T00:44:38.214Z,6.30
2019-05-20T00:45:13.896Z,5.47
2019-05-20T00:45:48.412Z,7.85
2019-05-20T00:46:23.593Z,6.05
2019-05-20T00:46:58.714Z,5.80
2019-05-20T00:47:33.274Z,5.37
2019-05-20T00:48:08.402Z,5.85
2019-05-20T00:48:43.877Z,5.35
2019-05-20T00:49:18.444Z,5.95
2019-05-20T00:49:53.650Z,6.40
2019-05-20T00:50:29.035Z,5.80
2019-05-20T00:51:03.643Z,5.55
2019-05-20T00:51:38.777Z,5.37
2019-05-20T00:52:13.932Z,6.05
2019-05-20T00:52:48.509Z,6.72
2019-05-20T00:53:23.689Z,5.45
2019-05-20T00:53:58.759Z,5.70
2019-05-20T00:54:33.414Z,5.62
2019-05-20T00:55:10.558Z,6.65
2019-05-20T00:55:45.634Z,5.90
2019-05-20T00:56:20.225Z,6.40
2019-05-20T00:56:55.371Z,6.17
2019-05-20T00:57:30.442Z,6.15
2019-05-20T00:58:05.063Z,6.15
2019-05-20T00:58:40.176Z,5.72
2019-05-20T00:59:15.342Z,6.00
2019-05-20T00:59:49.868Z,6.08
2019-05-20T01:00:25.532Z,5.15
2019-05-20T01:01:00.773Z,7.62
2019-05-20T01:01:35.328Z,5.33
2019-05-20T01:02:11.340Z,5.87
2019-05-20T01:02:56.576Z,6.15
2019-05-20T01:03:22.716Z,5.60
2019-05-20T01:03:57.869Z,5.70
2019-05-20T01:04:33.137Z,6.10
2019-05-20T01:05:07.742Z,5.67
2019-05-20T01:05:42.893Z,5.35
2019-05-20T01:06:19.004Z,6.65
2019-05-20T01:06:53.548Z,5.97
2019-05-20T01:07:29.073Z,5.37
2019-05-20T01:08:04.170Z,6.03
2019-05-20T01:08:38.679Z,6.50
2019-05-20T01:09:13.833Z,6.05
2019-05-20T01:09:48.963Z,6.70
2019-05-20T01:10:23.485Z,6.25
2019-05-20T01:10:58.660Z,6.78
2019-05-20T01:11:33.786Z,5.90
2019-05-20T01:12:08.296Z,5.12
2019-05-20T01:12:43.448Z,6.28
2019-05-20T01:13:18.595Z,6.67
2019-05-20T01:13:53.180Z,5.47
2019-05-20T01:14:28.528Z,6.30
2019-05-20T01:15:03.623Z,5.65
2019-05-20T01:15:38.224Z,6.62
2019-05-20T01:16:13.645Z,5.55
2019-05-20T01:16:48.833Z,5.87
2019-05-20T01:17:23.431Z,5.58
2019-05-20T01:17:58.504Z,5.58
2019-05-20T01:18:33.773Z,5.85
2019-05-20T01:19:08.341Z,5.75
2019-05-20T01:19:43.546Z,6.80
2019-05-20T01:20:18.791Z,5.17
2019-05-20T01:20:53.917Z,6.47
2019-05-20T01:21:28.993Z,6.08
2019-05-20T01:22:04.141Z,6.42
2019-05-20T01:22:38.728Z,5.70
2019-05-20T01:23:13.876Z,5.60
2019-05-20T01:23:48.954Z,5.60
2019-05-20T01:24:23.589Z,6.40
2019-05-20T01:24:58.747Z,6.10
2019-05-20T01:25:33.877Z,6.42
2019-05-20T01:26:08.532Z,6.67
2019-05-20T01:26:43.667Z,6.08
2019-05-20T01:27:18.815Z,5.47
2019-05-20T01:27:53.429Z,6.72
2019-05-20T01:28:28.526Z,6.28
2019-05-20T01:29:03.676Z,5.90
2019-05-20T01:29:38.263Z,5.60
2019-05-20T01:30:14.646Z,6.35
2019-05-20T01:30:49.820Z,6.25
2019-05-20T01:31:24.410Z,6.80
2019-05-20T01:31:59.530Z,6.62
2019-05-20T01:32:34.677Z,5.95
2019-05-20T01:33:13.631Z,6.40
2019-05-20T01:33:46.074Z,6.28
2019-05-20T01:34:21.176Z,6.30
2019-05-20T01:34:55.794Z,6.78
2019-05-20T01:35:31.013Z,5.78
2019-05-20T01:36:06.140Z,6.25
2019-05-20T01:36:40.798Z,6.28
2019-05-20T01:37:15.871Z,5.75
2019-05-20T01:37:50.938Z,6.80
2019-05-20T01:38:25.556Z,6.00
2019-05-20T01:39:00.713Z,6.10
2019-05-20T01:39:35.859Z,6.12
2019-05-20T01:40:10.783Z,6.65
2019-05-20T01:40:45.918Z,5.80
2019-05-20T01:41:21.034Z,5.83
2019-05-20T01:41:55.538Z,5.78
2019-05-20T01:42:30.642Z,6.75
2019-05-20T01:43:05.796Z,6.58
2019-05-20T01:43:40.406Z,6.17
2019-05-20T01:44:15.548Z,6.62
2019-05-20T01:44:50.687Z,6.67
2019-05-20T01:45:25.214Z,6.25
2019-05-20T01:46:00.461Z,8.10
2019-05-20T01:46:35.588Z,6.55
2019-05-20T01:47:10.174Z,6.35
2019-05-20T01:47:45.321Z,6.15
2019-05-20T01:48:20.560Z,6.83
2019-05-20T01:48:55.318Z,6.33
2019-05-20T01:49:30.457Z,5.85
2019-05-20T01:50:07.282Z,6.70
2019-05-20T01:50:41.790Z,5.75
2019-05-20T01:51:16.890Z,6.97
2019-05-20T01:51:51.938Z,6.65
2019-05-20T01:52:26.525Z,6.95
2019-05-20T01:53:01.642Z,6.95
2019-05-20T01:53:36.782Z,5.80
2019-05-20T01:54:17.998Z,6.22
2019-05-20T01:54:53.135Z,6.35
2019-05-20T01:55:28.577Z,6.50
2019-05-20T01:56:03.388Z,6.50
2019-05-20T01:56:46.482Z,6.80
2019-05-20T01:57:21.631Z,7.20
2019-05-20T01:57:56.229Z,7.92
2019-05-20T01:58:31.354Z,7.95
2019-05-20T01:59:06.749Z,7.65
2019-05-20T01:59:41.686Z,7.72
2019-05-20T02:00:17.333Z,6.60
2019-05-20T02:00:52.458Z,6.67
2019-05-20T02:01:26.974Z,7.45
2019-05-20T02:02:02.068Z,11.50
2019-05-20T02:02:37.227Z,7.20
2019-05-20T02:03:11.802Z,7.47
2019-05-20T02:03:46.936Z,7.25
2019-05-20T02:04:21.995Z,6.35
2019-05-20T02:04:56.606Z,7.35
2019-05-20T02:05:31.914Z,6.58
2019-05-20T02:06:08.157Z,7.55
2019-05-20T02:06:42.789Z,7.22
2019-05-20T02:07:17.933Z,6.97
2019-05-20T02:07:53.087Z,6.45
2019-05-20T02:08:27.948Z,7.12
2019-05-20T02:09:03.088Z,6.95
2019-05-20T02:09:38.222Z,6.62
2019-05-20T02:10:13.280Z,7.90
2019-05-20T02:10:48.420Z,7.33
2019-05-20T02:11:23.604Z,6.70
2019-05-20T02:11:58.483Z,7.15
2019-05-20T02:12:33.654Z,7.53
2019-05-20T02:13:08.781Z,6.75
2019-05-20T02:14:03.056Z,7.47
2019-05-20T02:14:55.476Z,7.60
2019-05-20T02:15:37.899Z,7.80
2019-05-20T02:16:12.605Z,8.40
2019-05-20T02:16:47.679Z,7.12
2019-05-20T02:17:22.820Z,7.45
2019-05-20T02:17:57.396Z,8.00
2019-05-20T02:18:32.545Z,7.75
2019-05-20T02:19:07.777Z,7.45
2019-05-20T02:19:42.446Z,7.40
2019-05-20T02:20:17.744Z,7.78
2019-05-20T02:20:52.924Z,7.90
2019-05-20T02:21:27.509Z,7.83
2019-05-20T02:22:02.638Z,7.33
2019-05-20T02:22:37.761Z,7.50
2019-05-20T02:23:18.230Z,8.03
2019-05-20T02:23:53.300Z,7.55
2019-05-20T02:24:28.436Z,8.10
2019-05-20T02:25:03.354Z,7.85
2019-05-20T02:25:38.580Z,8.15
2019-05-20T02:26:13.767Z,7.87
2019-05-20T02:26:49.263Z,6.72
2019-05-20T02:27:24.464Z,8.13
2019-05-20T02:27:59.597Z,9.38
2019-05-20T02:28:34.272Z,7.60
2019-05-20T02:29:09.479Z,8.10
2019-05-20T02:29:44.613Z,7.97
2019-05-20T02:30:20.027Z,7.62
2019-05-20T02:30:57.086Z,7.40
2019-05-20T02:31:31.927Z,7.95
2019-05-20T02:32:06.431Z,8.10
2019-05-20T02:32:41.572Z,7.62
2019-05-20T02:33:16.693Z,7.85
2019-05-20T02:33:52.941Z,8.20
2019-05-20T02:34:29.600Z,8.90
2019-05-20T02:35:07.232Z,8.78
2019-05-20T02:35:41.809Z,7.67
2019-05-20T02:36:16.931Z,7.80
2019-05-20T02:36:52.036Z,10.70
2019-05-20T02:37:26.938Z,8.53
2019-05-20T02:38:02.189Z,8.40
2019-05-20T02:38:37.324Z,8.88
2019-05-20T02:39:11.934Z,9.70
2019-05-20T02:39:48.287Z,9.28
2019-05-20T02:40:23.419Z,9.75
2019-05-20T02:40:58.376Z,8.95
2019-05-20T02:41:33.459Z,9.28
2019-05-20T02:42:08.743Z,8.13
2019-05-20T02:42:43.351Z,8.80
2019-05-20T02:43:18.848Z,10.30
2019-05-20T02:43:54.354Z,9.78
2019-05-20T02:44:29.208Z,9.65
2019-05-20T02:45:06.891Z,9.88
2019-05-20T02:45:42.047Z,10.05
2019-05-20T02:46:16.667Z,9.28
2019-05-20T02:46:51.901Z,10.55
2019-05-20T02:47:27.052Z,9.93
2019-05-20T02:48:01.673Z,8.93
2019-05-20T02:48:36.807Z,10.50
2019-05-20T02:49:11.972Z,10.23
2019-05-20T02:49:46.594Z,9.95
2019-05-20T02:50:21.856Z,12.35
2019-05-20T02:50:57.007Z,9.68
2019-05-20T02:51:31.997Z,10.30
2019-05-20T02:52:07.169Z,11.00
2019-05-20T02:52:43.337Z,11.30
2019-05-20T02:53:17.974Z,11.08
2019-05-20T02:53:53.125Z,10.68
2019-05-20T02:54:28.214Z,11.03
2019-05-20T02:55:03.195Z,10.43
2019-05-20T02:55:38.459Z,11.28
2019-05-20T02:56:13.543Z,12.55
2019-05-20T02:56:48.085Z,10.40
2019-05-20T02:57:23.226Z,13.15
2019-05-20T02:57:58.425Z,11.25
2019-05-20T02:58:33.013Z,10.38
2019-05-20T02:59:08.147Z,11.78
2019-05-20T02:59:43.321Z,11.78
2019-05-20T03:00:18.229Z,10.93
2019-05-20T03:00:53.388Z,10.30
2019-05-20T03:01:28.540Z,11.43
2019-05-20T03:02:03.141Z,12.88
2019-05-20T03:02:38.336Z,11.00
2019-05-20T03:03:13.512Z,12.78
2019-05-20T03:03:48.155Z,11.30
2019-05-20T03:04:23.329Z,11.48
2019-05-20T03:04:58.700Z,11.63
2019-05-20T03:05:33.575Z,12.63
2019-05-20T03:06:08.977Z,11.95
2019-05-20T03:06:45.909Z,12.50
2019-05-20T03:07:20.615Z,12.50
2019-05-20T03:07:55.761Z,11.45
2019-05-20T03:08:30.906Z,12.23
2019-05-20T03:09:06.049Z,12.23
2019-05-20T03:09:41.258Z,12.53
2019-05-20T03:10:16.646Z,12.93
2019-05-20T03:10:51.172Z,11.97
2019-05-20T03:11:26.364Z,12.82
2019-05-20T03:12:01.509Z,12.80
2019-05-20T03:12:36.139Z,13.15
2019-05-20T03:13:11.307Z,12.47
2019-05-20T03:13:46.572Z,13.00
2019-05-20T03:14:21.108Z,11.85
2019-05-20T03:14:56.357Z,12.63
2019-05-20T03:15:31.561Z,14.15
2019-05-20T03:16:06.155Z,13.53
2019-05-20T03:16:41.237Z,14.90
2019-05-20T03:17:16.385Z,14.93
2019-05-20T03:17:50.902Z,13.48
2019-05-20T03:18:26.122Z,14.75
2019-05-20T03:19:01.209Z,14.58
2019-05-20T03:19:36.146Z,14.13
2019-05-20T03:20:11.558Z,13.80
2019-05-20T03:20:46.774Z,14.07
2019-05-20T03:21:21.428Z,14.60
2019-05-20T03:21:56.596Z,14.03
2019-05-20T03:22:31.757Z,15.15
2019-05-20T03:23:07.014Z,14.18
2019-05-20T03:23:42.096Z,15.05
2019-05-20T03:24:17.312Z,13.80
2019-05-20T03:24:52.096Z,15.50
2019-05-20T03:25:27.194Z,15.03
2019-05-20T03:26:02.931Z,15.23
2019-05-20T03:26:37.557Z,15.00
2019-05-20T03:27:12.776Z,14.55
2019-05-20T03:27:48.211Z,14.53
2019-05-20T03:28:22.753Z,14.58
2019-05-20T03:28:57.899Z,15.25
2019-05-20T03:29:33.160Z,14.10
2019-05-20T03:30:09.684Z,15.10
2019-05-20T03:30:44.800Z,15.53
2019-05-20T03:31:19.983Z,15.48
2019-05-20T03:31:54.586Z,15.58
2019-05-20T03:32:29.860Z,15.70
2019-05-20T03:33:05.001Z,17.30
2019-05-20T03:33:39.636Z,15.70
2019-05-20T03:34:42.401Z,15.68
2019-05-20T03:34:59.478Z,15.80
2019-05-20T03:35:27.776Z,16.82
2019-05-20T03:36:02.932Z,14.70
2019-05-20T03:36:38.083Z,14.73
2019-05-20T03:37:12.663Z,13.80
2019-05-20T03:37:47.829Z,16.40
2019-05-20T03:38:22.975Z,15.48
2019-05-20T03:38:57.568Z,14.35
2019-05-20T03:39:32.729Z,14.75
2019-05-20T03:40:08.960Z,14.18
2019-05-20T03:40:43.542Z,14.35
2019-05-20T03:41:18.627Z,17.02
2019-05-20T03:41:54.133Z,14.90
2019-05-20T03:42:28.754Z,15.18
2019-05-20T03:43:03.885Z,15.08
2019-05-20T03:43:39.046Z,18.12
2019-05-20T03:44:13.561Z,14.87
2019-05-20T03:44:48.698Z,15.83
2019-05-20T03:45:23.795Z,16.10
2019-05-20T03:45:58.468Z,15.85
2019-05-20T03:46:33.546Z,16.27
2019-05-20T03:47:08.691Z,15.60
2019-05-20T03:47:43.288Z,16.05
2019-05-20T03:48:18.445Z,14.90
2019-05-20T03:48:53.586Z,16.02
2019-05-20T03:49:28.238Z,15.60
2019-05-20T03:50:03.451Z,14.18
2019-05-20T03:50:38.557Z,16.45
2019-05-20T03:51:13.111Z,15.45
2019-05-20T03:51:51.936Z,15.40
2019-05-20T03:52:25.038Z,15.40
2019-05-20T03:52:59.647Z,14.53
2019-05-20T03:53:35.150Z,15.95
2019-05-20T03:54:10.321Z,16.57
2019-05-20T03:54:45.310Z,17.85
2019-05-20T03:55:20.443Z,15.38
2019-05-20T03:55:55.597Z,14.98
2019-05-20T03:56:30.186Z,16.02
2019-05-20T03:57:05.427Z,15.88
2019-05-20T03:57:40.562Z,15.68
2019-05-20T03:58:15.249Z,18.30
2019-05-20T03:58:50.743Z,16.25
2019-05-20T03:59:25.909Z,16.95
2019-05-20T04:00:00.520Z,15.55
2019-05-20T04:00:48.609Z,14.47
2019-05-20T04:01:23.794Z,15.50
2019-05-20T04:01:58.384Z,14.98
2019-05-20T04:02:33.516Z,16.15
2019-05-20T04:03:08.673Z,14.83
2019-05-20T04:03:43.267Z,16.82
2019-05-20T04:04:18.428Z,15.75
2019-05-20T04:05:02.504Z,16.05
2019-05-20T04:05:29.798Z,16.52
2019-05-20T04:06:05.503Z,16.50
2019-05-20T04:06:40.642Z,15.72
2019-05-20T04:07:15.274Z,15.03
2019-05-20T04:07:50.423Z,16.90
2019-05-20T04:08:25.515Z,17.50
2019-05-20T04:09:00.108Z,17.00
2019-05-20T04:09:35.201Z,15.80
2019-05-20T04:10:10.742Z,16.45
2019-05-20T04:10:45.342Z,17.05
2019-05-20T04:11:20.524Z,15.03
2019-05-20T04:11:55.701Z,16.65
2019-05-20T04:12:30.304Z,16.20
2019-05-20T04:13:05.530Z,16.42
2019-05-20T04:13:40.744Z,17.23
2019-05-20T04:14:15.287Z,16.05
2019-05-20T04:14:50.411Z,16.73
2019-05-20T04:15:25.492Z,17.52
2019-05-20T04:16:00.079Z,17.17
2019-05-20T04:16:35.252Z,33.60
2019-05-20T04:17:10.480Z,16.48
2019-05-20T04:17:45.020Z,18.87
2019-05-20T04:18:20.095Z,19.00
2019-05-20T04:18:55.187Z,17.80
2019-05-20T04:19:29.778Z,18.90
2019-05-20T04:20:06.975Z,17.87
2019-05-20T04:20:42.113Z,17.65
2019-05-20T04:21:17.029Z,18.42
2019-05-20T04:21:52.473Z,17.12
2019-05-20T04:22:27.621Z,17.92
2019-05-20T04:23:02.228Z,19.12
2019-05-20T04:23:37.508Z,17.32
2019-05-20T04:24:12.952Z,18.65
2019-05-20T04:24:47.543Z,19.30
2019-05-20T04:25:22.675Z,17.50
2019-05-20T04:25:58.106Z,18.80
2019-05-20T04:26:32.717Z,17.57
2019-05-20T04:27:07.866Z,17.10
2019-05-20T04:27:42.955Z,18.87
2019-05-20T04:28:17.487Z,17.82
2019-05-20T04:28:53.163Z,18.87
2019-05-20T04:29:29.050Z,19.07
2019-05-20T04:30:04.758Z,18.00
2019-05-20T04:30:39.978Z,18.12
2019-05-20T04:31:15.139Z,20.85
2019-05-20T04:31:49.700Z,18.45
2019-05-20T04:32:24.839Z,18.65
2019-05-20T04:32:59.911Z,20.55
2019-05-20T04:33:34.552Z,20.20
2019-05-20T04:34:09.680Z,19.07
2019-05-20T04:34:44.808Z,20.35
2019-05-20T04:35:22.870Z,21.15
2019-05-20T04:35:56.183Z,20.00
2019-05-20T04:36:31.503Z,20.70
2019-05-20T04:37:06.094Z,19.60
2019-05-20T04:37:41.183Z,19.37
2019-05-20T04:38:16.341Z,18.07
2019-05-20T04:38:52.567Z,17.02
2019-05-20T04:39:27.776Z,20.12
2019-05-20T04:40:04.155Z,18.10
2019-05-20T04:40:38.746Z,17.23
2019-05-20T04:41:13.919Z,17.10
2019-05-20T04:41:49.087Z,16.25
2019-05-20T04:42:23.698Z,14.50
2019-05-20T04:42:58.889Z,14.75
2019-05-20T04:43:34.001Z,15.23
2019-05-20T04:44:08.871Z,14.38
2019-05-20T04:44:44.029Z,14.35
2019-05-20T04:45:19.122Z,15.35
2019-05-20T04:45:54.390Z,15.50
2019-05-20T04:46:29.923Z,15.90
2019-05-20T04:47:05.093Z,15.03
2019-05-20T04:47:39.677Z,15.55
2019-05-20T04:48:14.765Z,15.18
2019-05-20T04:48:50.029Z,13.28
2019-05-20T04:49:24.641Z,13.53
2019-05-20T04:49:59.831Z,15.72
2019-05-20T04:50:35.266Z,13.60
2019-05-20T04:51:11.496Z,15.50
2019-05-20T04:51:46.650Z,14.23
2019-05-20T04:52:21.801Z,13.35
2019-05-20T04:52:56.433Z,14.87
2019-05-20T04:53:31.593Z,13.13
2019-05-20T04:54:06.743Z,11.55
2019-05-20T04:54:41.338Z,12.95
2019-05-20T04:55:16.624Z,12.70
2019-05-20T04:55:51.738Z,12.70
2019-05-20T04:56:29.249Z,12.73
2019-05-20T04:57:03.085Z,13.03
2019-05-20T04:57:38.237Z,13.85
2019-05-20T04:58:12.918Z,14.78
2019-05-20T04:58:48.001Z,14.75
2019-05-20T04:59:23.109Z,13.83
2019-05-20T04:59:57.717Z,14.23
2019-05-20T05:00:53.998Z,13.90
2019-05-20T05:01:29.188Z,13.90
2019-05-20T05:02:03.718Z,13.98
2019-05-20T05:02:42.927Z,15.55
2019-05-20T05:03:15.632Z,13.72
2019-05-20T05:03:56.000Z,13.65
2019-05-20T05:04:31.200Z,13.72
2019-05-20T05:05:08.098Z,14.85
2019-05-20T05:05:42.798Z,15.32
2019-05-20T05:06:17.936Z,15.68
2019-05-20T05:06:53.101Z,14.00
2019-05-20T05:07:27.701Z,16.57
2019-05-20T05:08:02.893Z,15.53
2019-05-20T05:08:38.180Z,14.30
2019-05-20T05:09:15.607Z,14.93
2019-05-20T05:09:49.556Z,16.70
2019-05-20T05:10:24.679Z,16.17
2019-05-20T05:10:59.209Z,15.43
2019-05-20T05:11:34.511Z,15.30
2019-05-20T05:12:09.652Z,16.82
2019-05-20T05:12:44.255Z,16.05
2019-05-20T05:13:19.751Z,15.95
2019-05-20T05:13:54.944Z,15.58
2019-05-20T05:14:29.561Z,15.00
2019-05-20T05:15:08.281Z,16.32
2019-05-20T05:15:44.059Z,17.20
2019-05-20T05:16:19.202Z,18.27
2019-05-20T05:16:54.416Z,15.48
2019-05-20T05:17:29.578Z,17.48
2019-05-20T05:18:04.292Z,16.77
2019-05-20T05:18:39.749Z,16.32
2019-05-20T05:19:14.855Z,15.18
2019-05-20T05:19:49.486Z,14.85
2019-05-20T05:20:24.691Z,16.00
2019-05-20T05:20:59.828Z,14.90
2019-05-20T05:21:34.465Z,15.88
2019-05-20T05:22:09.535Z,16.55
2019-05-20T05:22:44.656Z,16.40
2019-05-20T05:23:19.331Z,17.48
2019-05-20T05:23:59.250Z,14.47
2019-05-20T05:24:31.473Z,14.90
2019-05-20T05:25:07.112Z,16.10
2019-05-20T05:25:42.199Z,15.28
2019-05-20T05:26:17.282Z,16.23
2019-05-20T05:26:51.874Z,16.02
2019-05-20T05:27:26.963Z,17.20
2019-05-20T05:28:02.114Z,16.90
2019-05-20T05:28:36.798Z,16.60
2019-05-20T05:29:11.870Z,16.93
2019-05-20T05:29:46.968Z,15.88
2019-05-20T05:30:21.595Z,15.88
2019-05-20T05:30:56.679Z,14.70
2019-05-20T05:31:31.821Z,17.05
2019-05-20T05:32:06.351Z,15.83
2019-05-20T05:32:42.045Z,16.50
2019-05-20T05:33:17.217Z,16.60
2019-05-20T05:33:54.356Z,19.25
2019-05-20T05:34:28.617Z,18.50
2019-05-20T05:35:04.463Z,16.67
2019-05-20T05:35:52.328Z,17.02
2019-05-20T05:36:15.857Z,19.12
2019-05-20T05:36:50.968Z,17.82
2019-05-20T05:37:25.562Z,17.52
2019-05-20T05:38:01.100Z,16.90
2019-05-20T05:38:36.649Z,17.87
2019-05-20T05:39:11.245Z,19.65
2019-05-20T05:39:46.412Z,17.98
2019-05-20T05:40:24.653Z,18.52
2019-05-20T05:40:59.284Z,18.32
2019-05-20T05:41:34.430Z,18.05
2019-05-20T05:42:09.526Z,17.48
2019-05-20T05:42:44.049Z,21.45
2019-05-20T05:43:19.120Z,18.17
2019-05-20T05:43:54.280Z,20.52
2019-05-20T05:44:29.143Z,18.57
2019-05-20T05:45:08.025Z,18.52
2019-05-20T05:45:43.268Z,17.92
2019-05-20T05:46:17.865Z,18.82
2019-05-20T05:46:52.933Z,20.70
2019-05-20T05:47:28.094Z,20.08
2019-05-20T05:48:02.782Z,20.45
2019-05-20T05:48:37.933Z,20.12
2019-05-20T05:49:13.021Z,21.37
2019-05-20T05:49:47.629Z,20.50
2019-05-20T05:50:22.786Z,25.02
2019-05-20T05:50:57.923Z,19.52
2019-05-20T05:51:32.516Z,20.17
2019-05-20T05:52:07.679Z,20.80
2019-05-20T05:52:42.788Z,19.57
2019-05-20T05:53:17.457Z,19.67
2019-05-20T05:53:52.602Z,21.23
2019-05-20T05:54:30.360Z,20.57
2019-05-20T05:55:05.708Z,19.37
2019-05-20T05:55:40.785Z,21.50
2019-05-20T05:56:15.882Z,20.75
2019-05-20T05:56:50.496Z,20.90
2019-05-20T05:57:25.661Z,21.30
2019-05-20T05:58:00.886Z,21.93
2019-05-20T05:58:37.442Z,22.75
2019-05-20T05:59:12.519Z,21.12
2019-05-20T05:59:47.608Z,21.52
2019-05-20T06:00:22.471Z,24.30
2019-05-20T06:00:57.652Z,23.07
2019-05-20T06:01:32.824Z,22.80
2019-05-20T06:02:07.442Z,22.00
2019-05-20T06:02:42.928Z,23.27
2019-05-20T06:03:18.017Z,25.23
2019-05-20T06:03:52.600Z,24.70
2019-05-20T06:04:27.745Z,22.77
2019-05-20T06:05:02.841Z,22.87
2019-05-20T06:05:37.442Z,22.35
2019-05-20T06:06:13.470Z,26.12
2019-05-20T06:06:48.886Z,23.00
2019-05-20T06:07:23.481Z,23.00
2019-05-20T06:07:58.756Z,23.80
2019-05-20T06:08:34.246Z,24.60
2019-05-20T06:09:08.876Z,23.80
2019-05-20T06:09:44.036Z,24.50
2019-05-20T06:10:19.950Z,23.50
2019-05-20T06:10:54.614Z,23.52
2019-05-20T06:11:29.746Z,23.80
2019-05-20T06:12:04.836Z,24.00
2019-05-20T06:12:39.449Z,25.65
2019-05-20T06:13:14.579Z,23.67
2019-05-20T06:13:49.711Z,23.40
2019-05-20T06:14:24.347Z,25.30
2019-05-20T06:14:59.739Z,23.73
2019-05-20T06:15:34.923Z,22.55
2019-05-20T06:16:09.458Z,23.45
2019-05-20T06:16:44.673Z,24.02
2019-05-20T06:17:19.810Z,22.35
2019-05-20T06:17:54.344Z,22.50
2019-05-20T06:18:29.563Z,22.07
2019-05-20T06:19:04.655Z,23.52
2019-05-20T06:19:39.256Z,23.52
2019-05-20T06:20:15.241Z,22.77
2019-05-20T06:20:50.402Z,24.67
2019-05-20T06:21:25.025Z,24.67
2019-05-20T06:22:00.271Z,21.17
2019-05-20T06:22:35.414Z,20.55
2019-05-20T06:23:09.983Z,21.10
2019-05-20T06:23:45.486Z,22.48
2019-05-20T06:24:20.678Z,22.13
2019-05-20T06:24:55.310Z,21.90
2019-05-20T06:25:30.474Z,23.35
2019-05-20T06:26:05.616Z,20.52
2019-05-20T06:26:40.294Z,21.05
2019-05-20T06:27:15.401Z,22.90
2019-05-20T06:27:50.473Z,19.80
2019-05-20T06:28:25.026Z,20.77
2019-05-20T06:29:02.895Z,20.45
2019-05-20T06:29:36.875Z,21.82
2019-05-20T06:30:12.504Z,21.60
2019-05-20T06:30:47.970Z,20.92
2019-05-20T06:31:23.218Z,21.60
2019-05-20T06:31:57.861Z,21.50
2019-05-20T06:32:33.586Z,20.80
2019-05-20T06:33:08.802Z,21.65
2019-05-20T06:33:43.550Z,21.40
2019-05-20T06:34:20.893Z,21.45
2019-05-20T06:34:56.088Z,20.72
2019-05-20T06:35:30.621Z,20.52
2019-05-20T06:36:05.839Z,22.27
2019-05-20T06:36:42.070Z,21.62
2019-05-20T06:37:18.485Z,23.57
2019-05-20T06:37:54.722Z,20.65
2019-05-20T06:38:34.092Z,21.77
2019-05-20T06:39:13.004Z,21.48
2019-05-20T06:39:51.119Z,21.42
2019-05-20T06:40:26.304Z,20.57
2019-05-20T06:41:00.832Z,21.73
2019-05-20T06:41:35.979Z,21.10
2019-05-20T06:42:11.193Z,21.90
2019-05-20T06:42:45.802Z,24.10
2019-05-20T06:43:20.963Z,21.73
2019-05-20T06:43:56.093Z,23.98
2019-05-20T06:44:30.614Z,23.85
2019-05-20T06:45:07.957Z,24.02
2019-05-20T06:45:46.090Z,24.65
2019-05-20T06:46:20.614Z,24.75
2019-05-20T06:46:56.020Z,24.77
2019-05-20T06:47:31.224Z,25.72
2019-05-20T06:48:05.915Z,24.45
2019-05-20T06:48:41.021Z,24.75
2019-05-20T06:49:16.163Z,25.05
2019-05-20T06:49:50.704Z,24.37
2019-05-20T06:50:29.509Z,24.55
2019-05-20T06:51:02.657Z,24.87
2019-05-20T06:51:37.250Z,24.12
2019-05-20T06:52:12.441Z,23.40
2019-05-20T06:52:47.578Z,25.75
2019-05-20T06:53:22.193Z,24.12
2019-05-20T06:53:57.597Z,24.12
2019-05-20T06:54:32.836Z,24.95
2019-05-20T06:55:10.679Z,28.95
2019-05-20T06:55:45.819Z,24.63
2019-05-20T06:56:20.992Z,26.10
2019-05-20T06:56:55.545Z,24.45
2019-05-20T06:57:30.669Z,25.00
2019-05-20T06:58:05.747Z,25.95
2019-05-20T06:58:40.341Z,27.62
2019-05-20T06:59:15.433Z,24.90
2019-05-20T06:59:50.581Z,26.80
2019-05-20T07:00:39.213Z,28.12
2019-05-20T07:01:14.360Z,25.97
2019-05-20T07:01:49.509Z,26.52
2019-05-20T07:02:24.116Z,26.65
2019-05-20T07:02:59.247Z,26.45
2019-05-20T07:03:34.496Z,26.95
2019-05-20T07:04:09.175Z,24.55
2019-05-20T07:04:44.288Z,26.57
2019-05-20T07:05:20.348Z,26.60
2019-05-20T07:05:54.963Z,24.27
2019-05-20T07:06:45.641Z,25.27
2019-05-20T07:07:20.740Z,24.47
2019-05-20T07:07:48.988Z,28.70
2019-05-20T07:08:24.263Z,25.55
2019-05-20T07:08:59.391Z,26.40
2019-05-20T07:09:34.187Z,27.35
2019-05-20T07:10:09.715Z,26.60
2019-05-20T07:10:45.535Z,30.35
2019-05-20T07:11:20.140Z,29.35
2019-05-20T07:11:55.487Z,28.62
2019-05-20T07:12:40.608Z,32.33
2019-05-20T07:13:06.811Z,30.43
2019-05-20T07:13:41.943Z,28.95
2019-05-20T07:14:17.029Z,30.10
2019-05-20T07:14:51.669Z,28.12
2019-05-20T07:15:26.855Z,29.67
2019-05-20T07:16:02.039Z,31.55
2019-05-20T07:16:36.662Z,29.87
2019-05-20T07:17:11.803Z,28.95
2019-05-20T07:17:46.881Z,28.77
2019-05-20T07:18:21.403Z,30.82
2019-05-20T07:18:56.538Z,34.13
2019-05-20T07:19:31.698Z,34.45
2019-05-20T07:20:06.729Z,29.27
2019-05-20T07:20:41.967Z,31.15
2019-05-20T07:21:17.251Z,30.45
2019-05-20T07:21:51.978Z,32.15
2019-05-20T07:22:27.227Z,31.70
2019-05-20T07:23:02.434Z,31.00
2019-05-20T07:23:37.046Z,30.15
2019-05-20T07:24:12.197Z,31.65
2019-05-20T07:24:47.395Z,29.85
2019-05-20T07:25:22.014Z,30.17
2019-05-20T07:25:57.147Z,33.92
2019-05-20T07:26:32.255Z,33.00
2019-05-20T07:27:14.258Z,30.97
2019-05-20T07:27:49.365Z,30.05
2019-05-20T07:28:24.610Z,29.37
2019-05-20T07:29:00.251Z,30.55
2019-05-20T07:29:35.448Z,31.95
2019-05-20T07:30:14.952Z,32.75
2019-05-20T07:30:47.629Z,28.92
2019-05-20T07:31:22.785Z,27.85
2019-05-20T07:31:57.898Z,32.60
2019-05-20T07:32:32.479Z,32.55
2019-05-20T07:33:07.755Z,29.98
2019-05-20T07:33:43.113Z,30.90
2019-05-20T07:34:18.085Z,30.68
2019-05-20T07:34:53.287Z,30.60
2019-05-20T07:35:31.000Z,31.27
2019-05-20T07:36:05.035Z,31.35
2019-05-20T07:36:40.191Z,30.52
2019-05-20T07:37:15.281Z,30.85
2019-05-20T07:37:49.973Z,30.50
2019-05-20T07:38:25.120Z,30.72
2019-05-20T07:39:00.359Z,33.15
2019-05-20T07:39:35.894Z,33.58
2019-05-20T07:40:11.358Z,31.50
2019-05-20T07:40:46.498Z,29.70